createdAt,value
2023-01-23T00:00:03.734Z,102004.91
2023-01-23T00:04:38.412Z,102009.31
2023-01-23T00:08:41.175Z,102011.94
2023-01-23T00:12:45.658Z,102014.53
2023-01-23T00:16:47.181Z,102018.03
2023-01-23T00:20:48.683Z,102024.16
2023-01-23T00:24:50.224Z,102029.38
2023-01-23T00:28:52.823Z,102021.50
2023-01-23T00:32:54.737Z,102032.88
2023-01-23T00:36:56.267Z,102032.94
2023-01-23T00:40:58.466Z,102019.81
2023-01-23T00:45:00.341Z,102020.69
2023-01-23T00:49:01.885Z,102021.56
2023-01-23T00:53:03.414Z,102034.69
2023-01-23T00:57:05.092Z,102031.19
2023-01-23T01:01:06.568Z,102032.03
2023-01-23T01:05:08.677Z,102040.78
2023-01-23T01:09:10.214Z,102043.41
2023-01-23T01:13:12.778Z,102054.81
2023-01-23T01:17:14.420Z,102057.41
2023-01-23T01:21:17.094Z,102051.28
2023-01-23T01:25:19.606Z,102054.78
2023-01-23T01:29:21.108Z,102060.03
2023-01-23T01:33:24.301Z,102064.41
2023-01-23T01:37:26.686Z,102069.66
2023-01-23T01:41:28.462Z,102073.13
2023-01-23T01:46:07.522Z,102079.25
2023-01-23T01:50:12.446Z,102074.88
2023-01-23T01:54:28.594Z,102089.75
2023-01-23T01:58:30.717Z,102094.13
2023-01-23T02:02:40.480Z,102102.81
2023-01-23T02:06:42.917Z,102102.84
2023-01-23T02:10:44.952Z,102107.22
2023-01-23T02:14:46.570Z,102109.00
2023-01-23T02:18:53.643Z,102113.34
2023-01-23T02:23:24.569Z,102112.47
2023-01-23T02:27:26.213Z,102107.22
2023-01-23T02:31:28.127Z,102119.47
2023-01-23T02:35:31.233Z,102122.06
2023-01-23T02:39:39.529Z,102114.22
2023-01-23T02:43:43.235Z,102117.72
2023-01-23T02:47:46.378Z,102125.56
2023-01-23T02:51:49.296Z,102121.22
2023-01-23T02:55:51.684Z,102125.59
2023-01-23T03:00:16.119Z,102124.72
2023-01-23T03:04:18.295Z,102122.09
2023-01-23T03:08:19.877Z,102113.34
2023-01-23T03:12:21.483Z,102116.84
2023-01-23T03:16:23.152Z,102101.09
2023-01-23T03:20:26.757Z,102096.75
2023-01-23T03:24:28.365Z,102094.09
2023-01-23T03:28:49.056Z,102093.22
2023-01-23T03:32:51.628Z,102102.00
2023-01-23T03:36:53.292Z,102112.47
2023-01-23T03:41:14.050Z,102120.34
2023-01-23T03:45:15.783Z,102125.56
2023-01-23T03:49:18.324Z,102132.59
2023-01-23T03:53:25.073Z,102131.72
2023-01-23T03:57:27.563Z,102126.47
2023-01-23T04:01:35.029Z,102134.34
2023-01-23T04:05:38.622Z,102130.84
2023-01-23T04:09:40.315Z,102138.72
2023-01-23T04:13:42.455Z,102148.28
2023-01-23T04:17:44.079Z,102150.91
2023-01-23T04:21:48.927Z,102155.31
2023-01-23T04:25:51.070Z,102153.53
2023-01-23T04:29:52.928Z,102158.78
2023-01-23T04:33:54.715Z,102157.91
2023-01-23T04:37:57.397Z,102157.06
2023-01-23T04:41:59.731Z,102163.19
2023-01-23T04:46:20.291Z,102165.81
2023-01-23T04:50:22.210Z,102176.31
2023-01-23T04:54:23.827Z,102171.06
2023-01-23T04:58:25.740Z,102167.56
2023-01-23T05:02:30.311Z,102174.59
2023-01-23T05:06:32.918Z,102170.19
2023-01-23T05:10:34.639Z,102168.47
2023-01-23T05:14:41.714Z,102173.69
2023-01-23T05:18:44.183Z,102174.56
2023-01-23T05:22:52.819Z,102177.16
2023-01-23T05:26:58.765Z,102178.94
2023-01-23T05:31:04.150Z,102180.69
2023-01-23T05:35:14.937Z,102184.19
2023-01-23T05:39:18.261Z,102188.56
2023-01-23T05:43:19.876Z,102190.31
2023-01-23T05:47:40.873Z,102185.09
2023-01-23T05:51:42.714Z,102192.06
2023-01-23T05:55:46.126Z,102187.69
2023-01-23T05:59:49.688Z,102198.19
2023-01-23T06:04:09.589Z,102198.19
2023-01-23T06:08:25.129Z,102203.41
2023-01-23T06:12:27.714Z,102208.69
2023-01-23T06:16:29.536Z,102209.53
2023-01-23T06:20:32.053Z,102212.16
2023-01-23T06:24:33.770Z,102214.78
2023-01-23T06:28:35.347Z,102219.19
2023-01-23T06:32:38.924Z,102218.31
2023-01-23T06:36:43.089Z,102220.94
2023-01-23T06:40:45.056Z,102234.03
2023-01-23T06:45:01.392Z,102237.53
2023-01-23T06:49:06.371Z,102246.31
2023-01-23T06:53:14.765Z,102242.75
2023-01-23T06:57:18.469Z,102253.28
2023-01-23T07:01:22.597Z,102255.03
2023-01-23T07:05:51.359Z,102265.53
2023-01-23T07:09:53.131Z,102264.66
2023-01-23T07:13:58.544Z,102270.81
2023-01-23T07:18:02.801Z,102280.44
2023-01-23T07:22:05.315Z,102295.31
2023-01-23T07:26:09.866Z,102303.19
2023-01-23T07:31:14.844Z,102318.03
2023-01-23T07:35:44.348Z,102317.19
2023-01-23T07:39:46.093Z,102318.91
2023-01-23T07:43:47.872Z,102327.66
2023-01-23T07:47:49.696Z,102332.06
2023-01-23T07:52:25.399Z,102326.78
2023-01-23T07:57:16.766Z,102333.81
2023-01-23T08:02:08.003Z,102343.44
2023-01-23T08:06:36.483Z,102342.56
2023-01-23T08:11:12.679Z,102339.94
2023-01-23T08:15:14.319Z,102339.06
2023-01-23T08:19:16.127Z,102347.00
2023-01-23T08:23:17.654Z,102346.06
2023-01-23T08:27:53.209Z,102349.56
2023-01-23T08:32:44.955Z,102346.09
2023-01-23T08:36:46.688Z,102342.59
2023-01-23T08:41:19.184Z,102345.22
2023-01-23T08:46:11.049Z,102347.88
2023-01-23T08:50:12.896Z,102353.09
2023-01-23T08:54:48.180Z,102356.63
2023-01-23T08:59:42.524Z,102352.25
2023-01-23T09:04:48.474Z,102360.13
2023-01-23T09:08:50.084Z,102355.72
2023-01-23T09:13:25.753Z,102362.75
2023-01-23T09:17:54.002Z,102361.84
2023-01-23T09:21:56.862Z,102367.06
2023-01-23T09:26:12.538Z,102378.50
2023-01-23T09:30:14.589Z,102388.16
2023-01-23T09:34:17.279Z,102377.63
2023-01-23T09:38:20.165Z,102378.50
2023-01-23T09:42:33.051Z,102378.47
2023-01-23T09:47:04.713Z,102377.59
2023-01-23T09:51:25.070Z,102377.56
2023-01-23T09:55:40.600Z,102368.81
2023-01-23T10:00:06.799Z,102359.13
2023-01-23T10:04:18.154Z,102365.22
2023-01-23T10:09:22.981Z,102360.84
2023-01-23T10:19:51.272Z,102350.31
2023-01-23T10:24:05.099Z,102350.31
2023-01-23T10:28:32.543Z,102358.19
2023-01-23T10:32:52.153Z,102353.81
2023-01-23T10:36:54.980Z,102358.16
2023-01-23T10:41:15.225Z,102352.94
2023-01-23T10:45:19.538Z,102349.34
2023-01-23T10:49:37.469Z,102353.72
2023-01-23T10:53:39.027Z,102352.84
2023-01-23T10:57:48.709Z,102352.84
2023-01-23T11:02:02.981Z,102358.06
2023-01-23T11:06:07.935Z,102351.94
2023-01-23T11:10:09.365Z,102345.75
2023-01-23T11:14:13.991Z,102337.69
2023-01-23T11:18:39.852Z,102347.13
2023-01-23T11:22:44.515Z,102341.09
2023-01-23T11:26:46.423Z,102347.13
2023-01-23T11:31:00.889Z,102343.56
2023-01-23T11:35:22.663Z,102349.78
2023-01-23T11:39:33.668Z,102343.72
2023-01-23T11:43:35.252Z,102342.22
2023-01-23T11:48:00.315Z,102334.47
2023-01-23T11:52:26.149Z,102337.13
2023-01-23T11:56:36.632Z,102327.47
2023-01-23T12:01:16.123Z,102328.34
2023-01-23T12:05:47.183Z,102325.72
2023-01-23T12:10:14.073Z,102325.69
2023-01-23T12:14:47.742Z,102317.75
2023-01-23T12:19:08.139Z,102305.50
2023-01-23T12:23:36.422Z,102307.28
2023-01-23T12:27:48.326Z,102323.09
2023-01-23T12:32:09.128Z,102322.13
2023-01-23T12:37:08.659Z,102321.13
2023-01-23T12:41:38.956Z,102322.91
2023-01-23T12:46:10.174Z,102326.47
2023-01-23T12:51:01.841Z,102329.03
2023-01-23T12:55:53.950Z,102327.22
2023-01-23T13:00:45.770Z,102329.03
2023-01-23T13:04:56.310Z,102338.78
2023-01-23T13:09:19.232Z,102330.91
2023-01-23T13:13:21.848Z,102331.81
2023-01-23T13:17:35.870Z,102332.69
2023-01-23T13:21:56.001Z,102337.94
2023-01-23T13:26:15.681Z,102337.94
2023-01-23T13:31:07.795Z,102342.34
2023-01-23T13:35:43.779Z,102345.06
2023-01-23T13:40:06.700Z,102343.34
2023-01-23T13:44:40.230Z,102346.84
2023-01-23T14:21:23.718Z,102340.84
2023-01-23T14:25:25.960Z,102349.59
2023-01-23T14:29:28.466Z,102350.44
2023-01-23T14:33:43.040Z,102351.34
2023-01-23T14:37:44.893Z,102358.34
2023-01-23T14:41:48.212Z,102351.38
2023-01-23T14:45:58.248Z,102360.09
2023-01-23T14:50:01.665Z,102348.72
2023-01-23T14:54:20.370Z,102351.38
2023-01-23T14:58:25.969Z,102351.34
2023-01-23T15:02:33.638Z,102356.63
2023-01-23T15:06:36.199Z,102347.84
2023-01-23T15:10:40.939Z,102347.00
2023-01-23T15:14:43.340Z,102345.22
2023-01-23T15:18:54.459Z,102351.38
2023-01-23T15:22:57.060Z,102354.84
2023-01-23T15:27:03.489Z,102348.75
2023-01-23T15:31:05.353Z,102352.22
2023-01-23T15:35:17.561Z,102352.22
2023-01-23T15:39:20.765Z,102358.34
2023-01-23T15:43:22.313Z,102359.25
2023-01-23T15:47:23.870Z,102364.50
2023-01-23T15:51:25.359Z,102372.34
2023-01-23T15:55:28.780Z,102373.22
2023-01-23T15:59:33.329Z,102378.47
2023-01-23T16:03:34.827Z,102381.13
2023-01-23T16:07:41.088Z,102388.13
2023-01-23T16:11:42.723Z,102394.22
2023-01-23T16:15:44.488Z,102395.09
2023-01-23T16:19:46.148Z,102395.13
2023-01-23T16:23:48.124Z,102394.22
2023-01-23T16:27:50.069Z,102399.47
2023-01-23T16:31:51.823Z,102409.94
2023-01-23T16:35:55.280Z,102404.66
2023-01-23T16:39:56.783Z,102410.81
2023-01-23T16:43:58.427Z,102402.06
2023-01-23T16:48:00.698Z,102411.69
2023-01-23T16:52:03.511Z,102409.91
2023-01-23T16:56:06.195Z,102420.41
2023-01-23T17:00:14.372Z,102409.91
2023-01-23T17:04:20.316Z,102409.03
2023-01-23T17:08:24.515Z,102415.16
2023-01-23T17:12:29.950Z,102412.50
2023-01-23T17:16:31.715Z,102422.13
2023-01-23T17:20:33.289Z,102431.75
2023-01-23T17:24:34.825Z,102431.75
2023-01-23T17:28:36.661Z,102437.00
2023-01-23T17:32:39.176Z,102438.72
2023-01-23T17:36:40.895Z,102443.13
2023-01-23T17:40:42.456Z,102439.63
2023-01-23T17:44:44.351Z,102437.00
2023-01-23T17:48:46.161Z,102433.47
2023-01-23T17:52:48.485Z,102438.75
2023-01-23T17:56:49.929Z,102434.41
2023-01-23T18:00:53.452Z,102437.03
2023-01-23T18:04:55.639Z,102444.03
2023-01-23T18:08:57.294Z,102449.28
2023-01-23T18:13:22.311Z,102449.25
2023-01-23T18:17:38.986Z,102450.13
2023-01-23T18:21:40.851Z,102447.47
2023-01-23T18:25:45.264Z,102450.13
2023-01-23T18:29:58.955Z,102451.84
2023-01-23T18:34:00.902Z,102451.00
2023-01-23T18:38:32.983Z,102442.22
2023-01-23T18:42:38.586Z,102445.72
2023-01-23T18:46:41.361Z,102441.34
2023-01-23T18:50:57.488Z,102444.84
2023-01-23T18:55:04.424Z,102449.25
2023-01-23T18:59:55.843Z,102443.94
2023-01-23T19:04:47.717Z,102436.06
2023-01-23T19:09:46.114Z,102439.63
2023-01-23T19:14:08.909Z,102444.88
2023-01-23T19:18:40.219Z,102448.41
2023-01-23T19:23:18.749Z,102445.78
2023-01-23T19:27:22.659Z,102445.84
2023-01-23T19:32:26.855Z,102446.69
2023-01-23T19:36:29.980Z,102449.38
2023-01-23T19:40:31.697Z,102450.25
2023-01-23T19:44:33.523Z,102458.09
2023-01-23T19:49:25.229Z,102463.31
2023-01-23T19:54:16.810Z,102461.53
2023-01-23T19:58:18.331Z,102468.59
2023-01-23T20:02:21.106Z,102470.38
2023-01-23T20:07:12.771Z,102469.44
2023-01-23T20:11:14.818Z,102477.28
2023-01-23T20:15:51.013Z,102472.91
2023-01-23T20:20:42.769Z,102470.28
2023-01-23T20:24:44.335Z,102471.19
2023-01-23T20:28:50.141Z,102473.78
2023-01-23T20:32:51.862Z,102479.00
2023-01-23T20:37:27.835Z,102478.06
2023-01-23T20:42:19.780Z,102471.97
2023-01-23T20:47:11.903Z,102466.72
2023-01-23T20:51:15.607Z,102468.47
2023-01-23T20:55:54.745Z,102462.38
2023-01-23T21:00:46.835Z,102463.25
2023-01-23T21:05:38.881Z,102470.22
2023-01-23T21:09:42.222Z,102471.94
2023-01-23T21:14:18.539Z,102466.78
2023-01-23T21:19:11.046Z,102469.41
2023-01-23T21:23:12.593Z,102471.09
2023-01-23T21:27:14.192Z,102472.91
2023-01-23T21:31:18.698Z,102478.13
2023-01-23T21:35:20.624Z,102473.78
2023-01-23T21:39:22.521Z,102471.19
2023-01-23T21:43:24.095Z,102472.06
2023-01-23T21:47:25.738Z,102472.06
2023-01-23T21:52:01.410Z,102475.50
2023-01-23T21:56:04.169Z,102475.53
2023-01-23T22:00:52.391Z,102482.50
2023-01-23T22:04:54.087Z,102477.25
2023-01-23T22:08:57.276Z,102470.25
2023-01-23T22:12:59.008Z,102484.25
2023-01-23T22:17:01.116Z,102481.63
2023-01-23T22:21:04.881Z,102485.94
2023-01-23T22:25:07.246Z,102482.47
2023-01-23T22:29:08.826Z,102488.63
2023-01-23T22:33:10.427Z,102478.16
2023-01-23T22:37:15.191Z,102478.19
2023-01-23T22:41:16.898Z,102482.50
2023-01-23T22:45:23.642Z,102481.66
2023-01-23T22:49:53.872Z,102479.84
2023-01-23T22:59:57.145Z,102482.50
2023-01-23T23:03:59.980Z,102482.53
2023-01-23T23:08:01.572Z,102487.75
2023-01-23T23:12:04.979Z,102475.53
2023-01-23T23:16:18.105Z,102471.16
2023-01-23T23:20:19.763Z,102464.13
2023-01-23T23:24:21.360Z,102458.91
2023-01-23T23:28:25.334Z,102458.94
2023-01-23T23:32:51.660Z,102463.25
2023-01-23T23:36:53.135Z,102471.13
2023-01-23T23:41:03.146Z,102475.44
2023-01-23T23:45:06.332Z,102467.59
2023-01-23T23:49:07.995Z,102470.22
2023-01-23T23:53:09.660Z,102471.97
2023-01-23T23:57:11.161Z,102470.22
